Time;durP1;ratioP1;P1;durP2;ratioP2;P2;SDS_P1;SDS_P2;PMS_P1;PMS_P2;Temp;Humidity;BMP_temperature;BMP_pressure;BME280_temperature;BME280_humidity;BME280_pressure;Samples;Min_cycle;Max_cycle;Signal;HPM_P1;HPM_P2
2023/08/13 00:01:52;;;;;;;;;2.33;2.33;;;;;-146.67;41.31;74635.66;6311999;22;61963;-75
2023/08/13 00:04:18;;;;;;;;;2.67;2.67;;;;;-146.67;41.15;74635.66;6311542;22;61698;-75
2023/08/13 00:06:43;;;;;;;;;3.00;2.00;;;;;-146.67;41.40;74637.66;6311190;22;61849;-75
2023/08/13 00:09:08;;;;;;;;;2.00;1.00;;;;;-146.67;41.28;74645.66;6311849;22;61693;-75
2023/08/13 00:11:34;;;;;;;;;4.33;2.33;;;;;-146.67;41.31;74643.66;6312072;22;62253;-75
2023/08/13 00:14:00;;;;;;;;;3.00;2.67;;;;;-146.67;41.34;74647.66;6312022;22;61649;-75
2023/08/13 00:16:25;;;;;;;;;5.00;2.67;;;;;-146.67;41.51;74643.66;6308875;22;64663;-75
2023/08/13 00:18:50;;;;;;;;;2.00;1.67;;;;;-146.67;41.68;74647.66;6311766;22;61969;-75
2023/08/13 00:21:16;;;;;;;;;3.67;1.67;;;;;-146.67;41.62;74657.63;6310772;22;61833;-75
2023/08/13 00:23:41;;;;;;;;;4.00;4.00;;;;;-146.67;42.00;74659.63;6312088;22;61732;-75
2023/08/13 00:26:07;;;;;;;;;3.00;3.00;;;;;-146.67;41.72;74655.63;6311048;22;62818;-75
2023/08/13 00:28:32;;;;;;;;;1.67;1.67;;;;;-146.67;41.71;74663.63;6312027;22;61833;-75
2023/08/13 00:30:57;;;;;;;;;3.00;2.00;;;;;-146.67;42.03;74663.63;6309506;22;62197;-75
2023/08/13 00:33:23;;;;;;;;;3.25;2.00;;;;;-146.67;42.09;74671.59;6311834;22;61611;-75
2023/08/13 00:35:50;;;;;;;;;1.00;0.00;;;;;-146.67;42.15;74677.59;6311097;22;62024;-75
2023/08/13 00:38:15;;;;;;;;;3.00;2.50;;;;;-146.67;42.20;74681.59;6309488;22;62028;-75
2023/08/13 00:40:40;;;;;;;;;2.67;1.67;;;;;-146.67;42.36;74683.59;6312131;22;61902;-75
2023/08/13 00:43:06;;;;;;;;;2.00;2.00;;;;;-146.67;42.20;74679.59;6311841;22;61758;-75
2023/08/13 00:45:35;;;;;;;;;3.00;3.00;;;;;-146.67;42.21;74693.56;6310616;22;62843;-75
2023/08/13 00:48:00;;;;;;;;;4.33;2.33;;;;;-146.67;42.68;74689.56;6311573;22;61783;-75
2023/08/13 00:50:26;;;;;;;;;2.25;2.25;;;;;-146.67;42.47;74697.56;6309207;22;61708;-75
2023/08/13 00:52:52;;;;;;;;;2.00;2.00;;;;;-146.67;42.31;74699.56;6311911;22;61877;-75
2023/08/13 00:55:17;;;;;;;;;2.00;1.00;;;;;-146.67;42.84;74703.56;6309139;22;63756;-75
2023/08/13 00:57:43;;;;;;;;;3.00;1.00;;;;;-146.67;42.41;74707.53;6311742;22;61838;-75
2023/08/13 01:00:10;;;;;;;;;2.00;2.00;;;;;-146.67;42.78;74707.53;6336065;22;61739;-75
2023/08/13 01:02:37;;;;;;;;;1.67;1.67;;;;;-146.67;42.21;74703.56;6310885;22;61799;-75
2023/08/13 01:05:05;;;;;;;;;3.00;1.00;;;;;-146.67;42.35;74705.53;6335350;22;63980;-75
2023/08/13 01:07:41;;;;;;;;;5.25;2.25;;;;;-146.67;42.68;74703.56;6335743;22;61699;-75
2023/08/13 01:10:23;;;;;;;;;3.00;1.33;;;;;-146.67;42.60;74715.53;6311595;22;61740;-75
2023/08/13 01:13:04;;;;;;;;;2.33;1.67;;;;;-146.67;42.68;74717.53;6309878;22;61950;-75
2023/08/13 01:15:36;;;;;;;;;1.33;1.33;;;;;-146.67;42.69;74715.53;6310181;22;63252;-76
2023/08/13 01:18:02;;;;;;;;;3.00;3.00;;;;;-146.67;42.66;74729.50;6309900;22;62039;-75
2023/08/13 01:20:32;;;;;;;;;2.67;2.33;;;;;-146.67;42.71;74739.50;6310741;22;61586;-75
2023/08/13 01:22:58;;;;;;;;;3.00;2.00;;;;;-146.67;42.91;74741.50;6311185;22;61741;-75
2023/08/13 01:25:25;;;;;;;;;1.67;1.67;;;;;-146.67;43.35;74735.50;6310748;22;62564;-75
2023/08/13 01:27:54;;;;;;;;;3.75;2.00;;;;;-146.67;43.19;74725.50;6311407;22;61766;-75
2023/08/13 01:30:26;;;;;;;;;3.00;1.00;;;;;-146.67;42.98;74723.50;6335023;22;61963;-76
2023/08/13 01:33:00;;;;;;;;;2.00;1.50;;;;;-146.67;43.28;74723.50;6309434;22;62112;-75
2023/08/13 01:35:26;;;;;;;;;3.67;0.67;;;;;-146.67;43.50;74725.50;6310584;22;61690;-75
2023/08/13 01:37:54;;;;;;;;;5.00;2.00;;;;;-146.67;43.47;74715.53;6311502;22;61706;-75
2023/08/13 01:40:19;;;;;;;;;2.75;2.75;;;;;-146.67;43.24;74727.50;6311096;22;61758;-75
2023/08/13 01:42:44;;;;;;;;;1.00;1.00;;;;;-146.67;43.10;74725.50;6309459;22;61686;-75
2023/08/13 01:45:10;;;;;;;;;3.67;1.00;;;;;-146.67;43.26;74739.50;6309997;22;61940;-75
2023/08/13 01:47:35;;;;;;;;;0.67;0.67;;;;;-146.67;43.71;74727.50;6310441;22;61763;-75
2023/08/13 01:50:01;;;;;;;;;2.67;0.67;;;;;-146.67;43.35;74745.47;6310797;22;61717;-75
2023/08/13 01:52:26;;;;;;;;;3.50;2.75;;;;;-146.67;43.34;74743.47;6335487;22;61772;-75
2023/08/13 01:54:53;;;;;;;;;4.33;1.33;;;;;-146.67;43.19;74755.47;6308307;22;63548;-76
2023/08/13 01:57:18;;;;;;;;;2.00;2.00;;;;;-146.67;43.39;74769.44;6309498;22;61886;-75
2023/08/13 01:59:43;;;;;;;;;1.50;1.50;;;;;-146.67;43.90;74779.41;6312677;22;61787;-75
2023/08/13 02:02:09;;;;;;;;;1.67;1.67;;;;;-146.67;44.06;74787.41;6310490;22;61775;-75
2023/08/13 02:04:34;;;;;;;;;4.00;3.00;;;;;-146.67;43.89;74787.41;6312067;22;63053;-75
2023/08/13 02:06:59;;;;;;;;;3.67;2.67;;;;;-146.67;43.74;74795.41;6312886;22;61888;-75
2023/08/13 02:09:25;;;;;;;;;4.00;1.00;;;;;-146.67;44.23;74811.38;6310054;22;61765;-75
2023/08/13 02:11:50;;;;;;;;;8.00;3.00;;;;;-146.67;44.59;74811.38;6310367;22;61764;-75
2023/08/13 02:14:16;;;;;;;;;2.00;2.00;;;;;-146.67;44.28;74813.38;6311182;22;62947;-75
2023/08/13 02:16:41;;;;;;;;;3.00;1.00;;;;;-146.67;44.39;74813.38;6335747;22;61846;-75
2023/08/13 02:19:06;;;;;;;;;2.67;2.00;;;;;-146.67;44.28;74813.38;6309981;22;61735;-75
2023/08/13 02:21:32;;;;;;;;;4.00;2.00;;;;;-146.67;44.61;74817.34;6310821;22;61921;-75
2023/08/13 02:23:57;;;;;;;;;3.00;1.67;;;;;-146.67;44.54;74823.34;6311589;22;61958;-75
2023/08/13 02:26:22;;;;;;;;;2.75;1.00;;;;;-146.67;44.66;74827.34;6312228;22;61569;-76
2023/08/13 02:28:48;;;;;;;;;4.25;2.50;;;;;-146.67;44.66;74831.34;6311519;22;61622;-75
2023/08/13 02:31:13;;;;;;;;;2.50;0.50;;;;;-146.67;44.67;74833.31;6312048;22;61768;-75
2023/08/13 02:33:39;;;;;;;;;3.00;2.00;;;;;-146.67;44.64;74835.31;6311435;22;62626;-75
2023/08/13 02:36:04;;;;;;;;;3.00;2.00;;;;;-146.67;44.51;74837.31;6312331;22;61816;-75
2023/08/13 02:38:30;;;;;;;;;2.75;1.00;;;;;-146.67;44.76;74835.31;6312071;22;61652;-75
2023/08/13 02:40:55;;;;;;;;;2.00;2.00;;;;;-146.67;45.23;74847.31;6310375;22;61661;-75
2023/08/13 02:43:20;;;;;;;;;2.25;1.00;;;;;-146.67;45.21;74853.28;6311345;22;61833;-75
2023/08/13 02:45:46;;;;;;;;;3.00;1.75;;;;;-146.67;45.31;74849.31;6309284;22;61813;-75
2023/08/13 02:48:11;;;;;;;;;4.00;1.75;;;;;-146.67;45.13;74841.31;6312198;22;61759;-75
2023/08/13 02:50:36;;;;;;;;;1.33;1.00;;;;;-146.67;45.31;74843.31;6312079;22;61790;-75
2023/08/13 02:53:02;;;;;;;;;3.75;1.00;;;;;-146.67;45.59;74847.31;6311542;22;62149;-75
2023/08/13 02:55:27;;;;;;;;;1.00;1.00;;;;;-146.67;45.69;74839.31;6312362;22;61718;-75
2023/08/13 02:57:53;;;;;;;;;2.00;2.00;;;;;-146.67;45.08;74837.31;6309799;22;61810;-75
2023/08/13 03:00:18;;;;;;;;;5.25;2.00;;;;;-146.67;45.20;74837.31;6336780;22;61691;-75
2023/08/13 03:02:44;;;;;;;;;5.00;2.00;;;;;-146.67;45.64;74863.28;6310933;22;61747;-75
2023/08/13 03:05:09;;;;;;;;;0.00;0.00;;;;;-146.67;45.60;74861.28;6336555;22;61900;-75
2023/08/13 03:07:35;;;;;;;;;2.00;1.25;;;;;-146.67;45.63;74853.28;6312158;22;61693;-75
2023/08/13 03:10:01;;;;;;;;;3.25;3.00;;;;;-146.67;45.57;74857.28;6312678;22;61704;-75
2023/08/13 03:12:26;;;;;;;;;7.25;2.00;;;;;-146.67;45.87;74853.28;6310737;22;61695;-75
2023/08/13 03:14:51;;;;;;;;;2.25;2.25;;;;;-146.67;45.90;74861.28;6309951;22;61736;-75
2023/08/13 03:17:17;;;;;;;;;3.25;1.50;;;;;-146.67;45.99;74873.25;6311601;22;61637;-75
2023/08/13 03:19:42;;;;;;;;;1.25;1.25;;;;;-146.67;46.07;74871.25;6311721;22;62123;-75
2023/08/13 03:22:08;;;;;;;;;2.67;0.00;;;;;-146.67;46.14;74883.25;6335479;22;65142;-75
2023/08/13 03:24:34;;;;;;;;;1.25;1.25;;;;;-146.67;46.45;74891.22;6312155;22;61647;-75
2023/08/13 03:26:59;;;;;;;;;3.00;2.00;;;;;-146.67;46.40;74885.25;6311182;22;61667;-75
2023/08/13 03:29:25;;;;;;;;;3.75;2.50;;;;;-146.67;46.42;74881.25;6312481;22;61738;-75
2023/08/13 03:31:50;;;;;;;;;2.50;2.50;;;;;-146.67;46.82;74901.22;6310739;22;61714;-75
2023/08/13 03:34:16;;;;;;;;;3.00;3.00;;;;;-146.67;47.04;74905.22;6311946;22;61744;-75
2023/08/13 03:36:41;;;;;;;;;2.75;1.00;;;;;-146.67;46.96;74915.19;6312006;22;61789;-75
2023/08/13 03:39:06;;;;;;;;;4.50;3.00;;;;;-146.67;47.31;74911.19;6310371;22;61952;-75
2023/08/13 03:41:32;;;;;;;;;1.50;1.50;;;;;-146.67;47.14;74909.19;6308906;22;64926;-75
2023/08/13 03:43:57;;;;;;;;;2.00;1.00;;;;;-146.67;46.91;74905.22;6311995;22;61772;-75
2023/08/13 03:46:22;;;;;;;;;6.75;2.75;;;;;-146.67;47.14;74909.19;6309837;22;61823;-75
2023/08/13 03:48:48;;;;;;;;;1.00;1.00;;;;;-146.67;47.04;74911.19;6312044;22;61696;-75
2023/08/13 03:51:13;;;;;;;;;2.50;2.50;;;;;-146.67;47.10;74911.19;6310793;22;61845;-75
2023/08/13 03:53:38;;;;;;;;;1.00;1.00;;;;;-146.67;47.11;74919.19;6336222;22;62201;-75
2023/08/13 03:56:07;;;;;;;;;5.50;2.00;;;;;-146.67;47.07;74917.19;6309735;22;61744;-75
2023/08/13 03:58:34;;;;;;;;;1.75;1.75;;;;;-146.67;47.30;74925.19;6310528;22;61664;-75
2023/08/13 04:01:07;;;;;;;;;2.00;2.00;;;;;-146.67;47.46;74919.19;6310199;22;62541;-75
2023/08/13 04:03:32;;;;;;;;;3.00;1.00;;;;;-146.67;47.43;74929.16;6309635;22;61738;-75
2023/08/13 04:05:58;;;;;;;;;2.50;1.00;;;;;-146.67;47.21;74927.16;6335744;22;61713;-75
2023/08/13 04:08:23;;;;;;;;;2.00;2.00;;;;;-146.67;47.55;74925.19;6311795;22;61650;-75
2023/08/13 04:10:52;;;;;;;;;3.00;2.25;;;;;-146.67;47.54;74929.16;6334791;22;63629;-75
2023/08/13 04:13:19;;;;;;;;;6.00;1.00;;;;;-146.67;47.75;74937.16;6312000;22;61762;-75
2023/08/13 04:15:44;;;;;;;;;0.67;0.67;;;;;-146.67;47.76;74941.16;6309541;22;61886;-75
2023/08/13 04:18:10;;;;;;;;;4.00;2.00;;;;;-146.67;47.55;74941.16;6309764;22;61749;-75
2023/08/13 04:20:36;;;;;;;;;3.00;2.00;;;;;-146.67;47.52;74947.13;6309783;22;62030;-75
2023/08/13 04:23:02;;;;;;;;;1.00;1.00;;;;;-146.67;48.01;74961.13;6311232;22;61925;-75
2023/08/13 04:25:27;;;;;;;;;4.00;2.00;;;;;-146.67;47.98;74971.09;6311334;22;61634;-75
2023/08/13 04:27:52;;;;;;;;;1.25;1.25;;;;;-146.67;48.29;74973.09;6311882;22;62107;-75
2023/08/13 04:30:18;;;;;;;;;3.00;2.25;;;;;-146.67;48.30;74971.09;6310794;22;61699;-75
2023/08/13 04:32:52;;;;;;;;;2.25;2.25;;;;;-146.67;48.31;74979.09;6311310;22;62105;-75
2023/08/13 04:35:17;;;;;;;;;3.00;1.67;;;;;-146.67;48.28;74981.09;6312112;22;61858;-75
2023/08/13 04:37:43;;;;;;;;;2.00;2.00;;;;;-146.67;48.29;74993.06;6336021;22;62238;-75
2023/08/13 04:40:10;;;;;;;;;3.25;2.00;;;;;-146.67;48.22;74983.06;6310393;22;61813;-75
2023/08/13 04:42:36;;;;;;;;;2.50;0.50;;;;;-146.67;48.24;74985.06;6311550;22;61834;-75
2023/08/13 04:45:01;;;;;;;;;1.00;1.00;;;;;-146.67;48.43;74987.06;6335586;22;61897;-75
2023/08/13 04:47:26;;;;;;;;;3.75;2.00;;;;;-146.67;48.51;74995.06;6309367;22;62296;-75
2023/08/13 04:49:52;;;;;;;;;9.50;4.00;;;;;-146.67;48.35;74997.06;6310189;22;61969;-75
2023/08/13 04:52:17;;;;;;;;;3.00;1.00;;;;;-146.67;48.45;74987.06;6308943;22;61775;-75
2023/08/13 04:54:46;;;;;;;;;1.00;1.00;;;;;-146.67;48.63;74983.06;6311325;22;62037;-75
2023/08/13 04:57:11;;;;;;;;;2.25;2.25;;;;;-146.67;48.43;74991.06;6309929;22;61656;-75
2023/08/13 04:59:37;;;;;;;;;2.00;2.00;;;;;-146.67;48.60;74995.06;6310935;22;62898;-75
2023/08/13 05:02:02;;;;;;;;;3.00;1.25;;;;;-146.67;48.82;74985.06;6311492;22;61777;-75
2023/08/13 05:04:27;;;;;;;;;1.75;1.75;;;;;-146.67;48.64;74981.09;6311860;22;62219;-75
2023/08/13 05:06:53;;;;;;;;;4.75;3.00;;;;;-146.67;48.68;74979.09;6311506;22;61642;-75
2023/08/13 05:09:18;;;;;;;;;1.75;1.75;;;;;-146.67;48.46;74969.09;6310983;22;61822;-75
2023/08/13 05:11:44;;;;;;;;;2.50;1.00;;;;;-146.67;48.39;74955.13;6311618;22;61664;-75
2023/08/13 05:14:09;;;;;;;;;3.25;2.00;;;;;-146.67;48.21;74931.16;6311561;22;61680;-75
2023/08/13 05:16:35;;;;;;;;;2.00;1.00;;;;;-146.67;48.13;74925.19;6311140;22;62594;-75
2023/08/13 05:19:00;;;;;;;;;2.00;1.00;;;;;-146.67;47.95;74919.19;6310713;22;61822;-75
2023/08/13 05:21:25;;;;;;;;;1.50;1.50;;;;;-146.67;47.79;74915.19;6310480;22;61627;-75
2023/08/13 05:23:51;;;;;;;;;2.00;1.00;;;;;-146.67;47.93;74915.19;6309852;22;62077;-75
2023/08/13 05:26:16;;;;;;;;;2.75;2.00;;;;;-146.67;47.75;74911.19;6311889;22;61663;-75
2023/08/13 05:28:41;;;;;;;;;4.00;2.50;;;;;-146.67;48.02;74917.19;6311007;22;61808;-75
2023/08/13 05:31:07;;;;;;;;;1.00;1.00;;;;;-146.67;47.89;74917.19;6310937;22;61867;-75
2023/08/13 05:33:32;;;;;;;;;4.00;0.00;;;;;-146.67;48.27;74919.19;6310795;22;61718;-75
2023/08/13 05:35:58;;;;;;;;;3.25;1.25;;;;;-146.67;48.18;74923.19;6335908;22;62146;-75
2023/08/13 05:38:23;;;;;;;;;2.00;1.00;;;;;-146.67;47.85;74919.19;6335178;22;63520;-75
2023/08/13 05:40:48;;;;;;;;;7.00;2.00;;;;;-146.67;48.04;74923.19;6311635;22;61721;-75
2023/08/13 05:43:14;;;;;;;;;4.75;3.00;;;;;-146.67;47.99;74917.19;6311478;22;62128;-75
2023/08/13 05:45:41;;;;;;;;;3.00;1.50;;;;;-146.67;47.75;74917.19;6311643;22;61696;-75
2023/08/13 05:48:06;;;;;;;;;3.00;3.00;;;;;-146.67;47.88;74909.19;6310693;22;62944;-75
2023/08/13 05:50:32;;;;;;;;;1.25;1.25;;;;;-146.67;48.13;74907.22;6310278;22;61675;-75
2023/08/13 05:52:57;;;;;;;;;4.00;1.25;;;;;-146.67;47.61;74903.22;6311167;22;61644;-75
2023/08/13 05:55:23;;;;;;;;;4.00;2.00;;;;;-146.67;47.77;74895.22;6311369;22;61972;-75
2023/08/13 05:57:48;;;;;;;;;2.50;2.00;;;;;-146.67;47.75;74899.22;6310828;22;61714;-75
2023/08/13 06:00:14;;;;;;;;;6.25;1.50;;;;;-146.67;48.02;74899.22;6309204;22;61684;-75
2023/08/13 06:02:39;;;;;;;;;5.25;1.50;;;;;-146.67;47.91;74891.22;6308947;22;61730;-75
2023/08/13 06:05:08;;;;;;;;;2.50;1.25;;;;;-146.67;47.62;74885.25;6311025;22;61670;-75
2023/08/13 06:07:34;;;;;;;;;6.00;1.75;;;;;-146.67;47.49;74877.25;6310808;22;62832;-75
2023/08/13 06:10:01;;;;;;;;;2.00;1.75;;;;;-146.67;47.60;74879.25;6309271;22;61759;-75
2023/08/13 06:12:26;;;;;;;;;1.50;1.50;;;;;-146.67;47.47;74871.25;6311112;22;61683;-75
2023/08/13 06:14:52;;;;;;;;;3.00;2.00;;;;;-146.67;47.29;74871.25;6311330;22;61747;-75
2023/08/13 06:17:17;;;;;;;;;4.00;2.00;;;;;-146.67;47.65;74863.28;6309543;22;61893;-75
2023/08/13 06:19:42;;;;;;;;;3.00;3.00;;;;;-146.67;47.25;74855.28;6310026;22;61758;-75
2023/08/13 06:22:08;;;;;;;;;1.00;1.00;;;;;-146.67;47.44;74845.31;6310671;22;61843;-75
2023/08/13 06:24:34;;;;;;;;;3.25;1.25;;;;;-146.67;47.31;74833.31;6309373;22;61672;-75
2023/08/13 06:26:59;;;;;;;;;2.00;1.00;;;;;-146.67;47.32;74837.31;6307986;22;63623;-75
2023/08/13 06:29:25;;;;;;;;;6.00;2.00;;;;;-146.67;47.07;74833.31;6310693;22;61861;-75
2023/08/13 06:31:50;;;;;;;;;4.25;2.50;;;;;-146.67;46.74;74823.34;6310464;22;61605;-75
2023/08/13 06:34:15;;;;;;;;;1.25;1.25;;;;;-146.67;46.88;74823.34;6308656;22;61922;-75
2023/08/13 06:36:41;;;;;;;;;2.00;2.00;;;;;-146.67;46.76;74815.38;6308337;22;63450;-75
2023/08/13 06:39:07;;;;;;;;;0.50;0.50;;;;;-146.67;46.65;74817.34;6310958;22;61773;-75
2023/08/13 06:41:32;;;;;;;;;0.75;0.75;;;;;-146.67;46.76;74807.38;6310920;22;61634;-75
2023/08/13 06:43:57;;;;;;;;;1.00;1.00;;;;;-146.67;46.81;74803.38;6311671;22;61706;-75
2023/08/13 06:46:23;;;;;;;;;1.33;1.33;;;;;-146.67;46.51;74787.41;6311178;22;62952;-75
2023/08/13 06:48:48;;;;;;;;;4.00;2.00;;;;;-146.67;46.40;74791.41;6336168;22;61861;-75
2023/08/13 06:51:14;;;;;;;;;2.00;1.67;;;;;-146.67;46.53;74793.41;6312104;22;61866;-75
2023/08/13 06:53:39;;;;;;;;;4.00;1.00;;;;;-146.67;46.94;74807.38;6336747;22;61809;-75
2023/08/13 06:56:06;;;;;;;;;4.25;1.75;;;;;-146.67;46.72;74809.38;6311780;22;61856;-75
2023/08/13 06:58:31;;;;;;;;;1.00;1.00;;;;;-146.67;47.20;74807.38;6344626;22;61642;-75
2023/08/13 07:00:57;;;;;;;;;3.25;0.75;;;;;-146.67;46.57;74795.41;6317256;22;61196;-74
2023/08/13 07:03:22;;;;;;;;;0.67;0.67;;;;;-146.67;46.96;74787.41;6314525;22;61813;-75
2023/08/13 07:05:48;;;;;;;;;1.00;1.00;;;;;-146.67;46.15;74783.41;6309479;22;64965;-75
2023/08/13 07:08:13;;;;;;;;;1.67;1.67;;;;;-146.67;46.44;74777.44;6312075;22;61784;-75
2023/08/13 07:10:39;;;;;;;;;3.67;1.00;;;;;-146.67;46.43;74779.41;6312316;22;61619;-75
2023/08/13 07:13:04;;;;;;;;;3.67;2.00;;;;;-146.67;46.36;74755.47;6312583;22;61857;-75
2023/08/13 07:15:30;;;;;;;;;4.00;2.67;;;;;-146.67;45.86;74747.47;6311268;22;61807;-75
2023/08/13 07:17:55;;;;;;;;;4.00;2.00;;;;;-146.67;45.90;74735.50;6311356;22;61734;-75
2023/08/13 07:20:21;;;;;;;;;4.67;2.00;;;;;-146.67;45.93;74725.50;6335920;22;62337;-75
2023/08/13 07:22:47;;;;;;;;;4.00;1.00;;;;;-146.67;45.24;74703.56;6311921;22;61737;-75
2023/08/13 07:25:13;;;;;;;;;1.00;1.00;;;;;-146.67;45.39;74703.56;6311474;22;61905;-75
2023/08/13 07:27:39;;;;;;;;;2.00;1.00;;;;;-146.67;45.05;74699.56;6336041;22;61867;-75
2023/08/13 07:30:12;;;;;;;;;3.00;1.67;;;;;-146.67;45.15;74691.56;6312050;22;61909;-75
2023/08/13 07:32:42;;;;;;;;;0.67;0.67;;;;;-146.67;45.06;74691.56;6311081;22;61734;-75
2023/08/13 07:35:10;;;;;;;;;4.00;1.00;;;;;-146.67;45.08;74675.59;6309544;22;63560;-75
2023/08/13 07:37:36;;;;;;;;;3.33;2.00;;;;;-146.67;44.78;74637.66;6311396;22;61928;-75
2023/08/13 07:40:07;;;;;;;;;3.00;1.33;;;;;-146.67;44.28;74611.72;6312073;22;61711;-75
2023/08/13 07:42:33;;;;;;;;;1.00;1.00;;;;;-146.67;43.93;74615.72;6310951;22;61893;-75
2023/08/13 07:44:59;;;;;;;;;2.00;1.00;;;;;-146.67;44.23;74627.69;6311553;22;62748;-75
2023/08/13 07:47:24;;;;;;;;;2.33;2.00;;;;;-146.67;44.06;74599.72;6335664;22;61819;-75
2023/08/13 07:49:49;;;;;;;;;3.00;0.67;;;;;-146.67;43.78;74579.78;6335987;22;61678;-75
2023/08/13 07:52:15;;;;;;;;;2.00;2.00;;;;;-146.67;43.88;74571.78;6310611;22;61648;-75
2023/08/13 07:54:40;;;;;;;;;1.00;1.00;;;;;-146.67;43.83;74579.78;6311464;22;62748;-75
2023/08/13 07:57:05;;;;;;;;;2.67;1.67;;;;;-146.67;43.85;74575.78;6312304;22;61822;-75
2023/08/13 07:59:31;;;;;;;;;5.00;1.67;;;;;-146.67;44.21;74565.78;6310541;22;61727;-75
2023/08/13 08:01:56;;;;;;;;;2.00;0.00;;;;;-146.67;43.79;74563.78;6335720;22;62061;-75
2023/08/13 08:04:22;;;;;;;;;1.33;1.00;;;;;-146.67;43.78;74567.78;6311127;22;61806;-75
2023/08/13 08:06:47;;;;;;;;;2.67;1.00;;;;;-146.67;43.44;74563.78;6311496;22;61737;-75
2023/08/13 08:09:13;;;;;;;;;3.67;2.33;;;;;-146.67;43.34;74563.78;6312660;22;61667;-75
2023/08/13 08:11:38;;;;;;;;;4.67;0.33;;;;;-146.67;43.22;74555.81;6312710;22;61651;-75
2023/08/13 08:14:04;;;;;;;;;1.33;1.00;;;;;-146.67;42.88;74543.84;6310900;22;62569;-75
2023/08/13 08:16:29;;;;;;;;;2.33;0.67;;;;;-146.67;42.80;74537.84;6310821;22;61766;-75
2023/08/13 08:18:54;;;;;;;;;2.00;1.33;;;;;-146.67;43.07;74531.84;6311687;22;61853;-75
2023/08/13 08:21:20;;;;;;;;;2.00;1.00;;;;;-146.67;43.02;74523.88;6311345;22;61707;-75
2023/08/13 08:23:45;;;;;;;;;0.00;0.00;;;;;-146.67;42.94;74523.88;6308892;22;63736;-75
2023/08/13 08:26:11;;;;;;;;;1.33;1.00;;;;;-146.67;42.83;74527.84;6311928;22;61958;-75
2023/08/13 08:28:36;;;;;;;;;0.67;0.67;;;;;-146.67;42.41;74527.84;6311924;22;61770;-75
2023/08/13 08:31:01;;;;;;;;;0.33;0.33;;;;;-146.67;42.47;74517.88;6311159;22;61672;-75
2023/08/13 08:33:27;;;;;;;;;1.00;1.00;;;;;-146.67;42.22;74521.88;6311282;22;61842;-75
2023/08/13 08:35:52;;;;;;;;;2.00;1.00;;;;;-146.67;42.37;74525.88;6311839;22;62000;-75
2023/08/13 08:38:17;;;;;;;;;0.00;0.00;;;;;-146.67;42.72;74519.88;6311893;22;61626;-75
2023/08/13 08:40:45;;;;;;;;;1.00;1.00;;;;;-146.67;42.65;74517.88;6310117;22;61640;-75
2023/08/13 08:43:11;;;;;;;;;1.67;1.00;;;;;-146.67;42.26;74515.88;6311770;22;62733;-75
2023/08/13 08:45:37;;;;;;;;;1.33;0.67;;;;;-146.67;42.31;74527.84;6311602;22;61639;-75
2023/08/13 08:48:06;;;;;;;;;1.67;0.67;;;;;-146.67;41.88;74523.88;6309578;22;61841;-75
2023/08/13 08:50:31;;;;;;;;;0.00;0.00;;;;;-146.67;41.85;74529.84;6311448;22;61694;-75
2023/08/13 08:52:57;;;;;;;;;1.00;0.33;;;;;-146.67;42.15;74527.84;6310843;22;61726;-75
2023/08/13 08:55:22;;;;;;;;;1.67;0.67;;;;;-146.67;41.83;74523.88;6312432;22;61660;-75
2023/08/13 08:57:49;;;;;;;;;1.00;0.00;;;;;-146.67;41.84;74507.91;6309850;22;61764;-75
2023/08/13 09:00:15;;;;;;;;;1.00;1.00;;;;;-146.67;42.06;74487.94;6312231;22;61838;-75
2023/08/13 09:02:41;;;;;;;;;1.00;0.67;;;;;-146.67;41.85;74479.94;6310563;22;61924;-75
2023/08/13 09:05:07;;;;;;;;;1.67;1.67;;;;;-146.67;41.79;74467.97;6309962;22;61888;-75
2023/08/13 09:07:33;;;;;;;;;1.00;0.67;;;;;-146.67;41.12;74452.00;6309370;22;61985;-75
2023/08/13 09:09:59;;;;;;;;;0.00;0.00;;;;;-146.67;40.84;74450.00;6310108;22;61761;-75
2023/08/13 09:12:24;;;;;;;;;0.00;0.00;;;;;-146.67;40.87;74452.00;6309061;22;63679;-75
2023/08/13 09:14:56;;;;;;;;;1.00;1.00;;;;;-146.67;41.28;74434.03;6311027;22;61877;-75
2023/08/13 09:17:25;;;;;;;;;3.33;0.00;;;;;-146.67;40.64;74416.06;6311292;22;61673;-75
2023/08/13 09:19:50;;;;;;;;;0.33;0.33;;;;;-146.67;40.02;74398.09;6309426;22;61918;-75
2023/08/13 09:22:16;;;;;;;;;1.33;1.00;;;;;-146.67;40.19;74378.13;6310611;22;62634;-75
2023/08/13 09:24:41;;;;;;;;;0.67;0.33;;;;;-146.67;39.93;74378.13;6311871;22;61819;-75
2023/08/13 09:27:08;;;;;;;;;0.67;0.67;;;;;-146.67;39.83;74366.16;6309530;22;61965;-75
2023/08/13 09:29:36;;;;;;;;;0.67;0.67;;;;;-146.67;39.52;74360.16;6311344;22;61790;-75
2023/08/13 09:32:02;;;;;;;;;2.00;1.00;;;;;-146.67;39.27;74356.16;6309997;22;61850;-75
2023/08/13 09:34:30;;;;;;;;;2.67;0.00;;;;;-146.67;39.80;74346.19;6311422;22;61681;-75
2023/08/13 09:36:56;;;;;;;;;1.00;0.67;;;;;-146.67;39.41;74336.19;6311154;22;61934;-75
2023/08/13 09:39:26;;;;;;;;;1.00;1.00;;;;;-146.67;39.52;74324.22;6312175;22;61713;-75
2023/08/13 09:41:52;;;;;;;;;0.00;0.00;;;;;-146.67;38.85;74320.22;6310637;22;61650;-76
2023/08/13 09:44:20;;;;;;;;;0.00;0.00;;;;;-146.67;38.37;74310.25;6311496;22;61758;-75
2023/08/13 09:46:51;;;;;;;;;1.00;0.67;;;;;-146.67;38.85;74304.25;6309276;22;61782;-75
2023/08/13 09:49:17;;;;;;;;;0.00;0.00;;;;;-146.67;39.14;74284.28;6310693;22;61670;-75
2023/08/13 09:51:46;;;;;;;;;0.00;0.00;;;;;-146.67;38.53;74286.28;6310798;22;61858;-75
2023/08/13 09:54:28;;;;;;;;;0.67;0.67;;;;;-146.67;38.38;74286.28;6310764;22;61730;-75
2023/08/13 09:57:01;;;;;;;;;1.33;1.00;;;;;-146.67;38.31;74272.31;6311171;22;61925;-76
2023/08/13 09:59:27;;;;;;;;;0.33;0.33;;;;;-146.67;38.31;74262.34;6309741;22;61772;-75
2023/08/13 10:01:54;;;;;;;;;1.67;0.00;;;;;-146.67;38.42;74254.34;6308385;22;63525;-75
2023/08/13 10:04:22;;;;;;;;;0.00;0.00;;;;;-146.67;37.75;74256.34;6335476;22;61742;-75
2023/08/13 10:06:50;;;;;;;;;1.33;0.00;;;;;-146.67;37.86;74268.31;6311721;22;61730;-75
2023/08/13 10:09:16;;;;;;;;;0.00;0.00;;;;;-146.67;37.48;74286.28;6309234;22;62132;-75
2023/08/13 10:11:42;;;;;;;;;1.67;0.00;;;;;-146.67;37.91;74296.28;6334334;22;63632;-75
2023/08/13 10:14:07;;;;;;;;;0.00;0.00;;;;;-146.67;37.92;74316.25;6335458;22;61675;-75
2023/08/13 10:16:33;;;;;;;;;2.33;0.67;;;;;-146.67;38.50;74316.25;6335061;22;61920;-75
2023/08/13 10:19:01;;;;;;;;;0.00;0.00;;;;;-146.67;38.23;74306.25;6311573;22;61748;-75
2023/08/13 10:21:36;;;;;;;;;0.67;0.67;;;;;-146.67;38.44;74318.25;6311385;22;61806;-75
2023/08/13 10:24:04;;;;;;;;;0.00;0.00;;;;;-146.67;38.56;74318.25;6312706;22;61773;-75
2023/08/13 10:26:29;;;;;;;;;0.00;0.00;;;;;-146.67;38.73;74308.25;6336480;22;61969;-75
2023/08/13 10:28:55;;;;;;;;;5.33;0.67;;;;;-146.67;38.48;74326.22;6310499;22;61985;-75
2023/08/13 10:31:25;;;;;;;;;0.00;0.00;;;;;-146.67;38.43;74334.22;6335584;22;63846;-75
2023/08/13 10:34:37;;;;;;;;;1.00;1.00;;;;;-146.67;38.53;74308.25;6312623;22;61874;-75
2023/08/13 10:37:02;;;;;;;;;1.00;1.00;;;;;-146.67;38.39;74288.28;6305620;22;61737;-75
2023/08/13 10:39:39;;;;;;;;;0.00;0.00;;;;;-146.67;38.05;74278.31;6337052;22;61864;-75
2023/08/13 10:42:28;;;;;;;;;0.67;0.00;;;;;-146.67;37.75;74266.34;6311647;22;62139;-75
2023/08/13 10:45:01;;;;;;;;;1.00;1.00;;;;;-146.67;37.64;74278.31;6312196;22;61622;-75
2023/08/13 10:47:47;;;;;;;;;0.00;0.00;;;;;-146.67;37.51;74274.31;6312245;22;61863;-75
2023/08/13 10:50:25;;;;;;;;;2.33;0.00;;;;;-146.67;37.13;74248.38;6312274;22;61750;-75
2023/08/13 10:53:00;;;;;;;;;0.00;0.00;;;;;-146.67;37.58;74240.38;6335673;22;63666;-75
2023/08/13 10:55:27;;;;;;;;;2.33;0.00;;;;;-146.67;37.96;74242.38;6311692;22;61613;-75
2023/08/13 10:57:53;;;;;;;;;0.00;0.00;;;;;-146.67;37.50;74250.38;6313003;22;61858;-75
2023/08/13 11:00:23;;;;;;;;;1.00;0.00;;;;;-146.67;37.24;74228.41;6312765;22;62056;-75
2023/08/13 11:03:27;;;;;;;;;0.67;0.33;;;;;-146.67;37.36;74230.41;6311366;22;61760;-75
2023/08/13 11:05:54;;;;;;;;;1.00;0.00;;;;;-146.67;37.35;74252.34;6333842;22;61979;-75
2023/08/13 11:08:21;;;;;;;;;1.00;0.00;;;;;-146.67;37.67;74256.34;6312492;22;61604;-75
2023/08/13 11:10:48;;;;;;;;;1.00;0.00;;;;;-146.67;38.20;74232.41;6312496;22;61766;-75
2023/08/13 11:13:15;;;;;;;;;0.33;0.33;;;;;-146.67;37.41;74184.47;6309555;22;64903;-75
2023/08/13 11:15:41;;;;;;;;;0.00;0.00;;;;;-146.67;37.01;74146.56;6336399;22;61758;-75